sensor_id;sensor_type;location;lat;lon;timestamp;pressure;altitude;pressure_sealevel;temperature;humidity
34983;BME280;21187;50.976;13.720;2023-04-06T00:04:02;98659.41;;;5.49;40.99
34983;BME280;21187;50.976;13.720;2023-04-06T00:09:04;98656.22;;;5.47;40.38
34983;BME280;21187;50.976;13.720;2023-04-06T00:14:06;98660.25;;;5.36;40.89
34983;BME280;21187;50.976;13.720;2023-04-06T00:19:08;98658.31;;;5.28;40.63
34983;BME280;21187;50.976;13.720;2023-04-06T00:24:10;98654.50;;;5.29;41.17
34983;BME280;21187;50.976;13.720;2023-04-06T00:29:12;98662.06;;;5.27;40.58
34983;BME280;21187;50.976;13.720;2023-04-06T00:34:14;98648.56;;;5.18;40.96
34983;BME280;21187;50.976;13.720;2023-04-06T00:39:17;98652.44;;;5.12;41.32
34983;BME280;21187;50.976;13.720;2023-04-06T00:44:22;98645.81;;;4.95;41.56
34983;BME280;21187;50.976;13.720;2023-04-06T00:49:24;98650.88;;;4.97;40.67
34983;BME280;21187;50.976;13.720;2023-04-06T00:54:26;98643.66;;;4.83;41.06
34983;BME280;21187;50.976;13.720;2023-04-06T00:59:28;98639.88;;;4.85;41.45
34983;BME280;21187;50.976;13.720;2023-04-06T01:04:32;98647.81;;;4.90;41.14
34983;BME280;21187;50.976;13.720;2023-04-06T01:09:35;98651.97;;;4.96;41.35
34983;BME280;21187;50.976;13.720;2023-04-06T01:14:45;98647.00;;;5.03;41.08
34983;BME280;21187;50.976;13.720;2023-04-06T01:19:49;98645.63;;;5.06;40.88
34983;BME280;21187;50.976;13.720;2023-04-06T01:24:59;98642.00;;;5.10;41.09
34983;BME280;21187;50.976;13.720;2023-04-06T01:30:20;98633.38;;;5.13;41.30
34983;BME280;21187;50.976;13.720;2023-04-06T01:35:30;98631.78;;;5.12;41.35
34983;BME280;21187;50.976;13.720;2023-04-06T01:40:46;98634.56;;;5.07;41.36
34983;BME280;21187;50.976;13.720;2023-04-06T01:45:50;98632.59;;;4.99;41.23
34983;BME280;21187;50.976;13.720;2023-04-06T01:50:55;98623.78;;;4.85;41.07
34983;BME280;21187;50.976;13.720;2023-04-06T01:56:03;98622.34;;;5.01;40.96
34983;BME280;21187;50.976;13.720;2023-04-06T02:01:13;98626.63;;;5.02;40.46
34983;BME280;21187;50.976;13.720;2023-04-06T02:06:25;98633.22;;;4.68;41.07
34983;BME280;21187;50.976;13.720;2023-04-06T02:11:27;98633.03;;;4.50;41.40
34983;BME280;21187;50.976;13.720;2023-04-06T02:16:30;98629.53;;;4.36;41.53
34983;BME280;21187;50.976;13.720;2023-04-06T02:21:32;98628.72;;;4.22;42.48
34983;BME280;21187;50.976;13.720;2023-04-06T02:26:34;98620.00;;;4.16;42.18
34983;BME280;21187;50.976;13.720;2023-04-06T02:31:36;98625.94;;;4.13;42.62
34983;BME280;21187;50.976;13.720;2023-04-06T02:36:39;98621.03;;;4.01;42.17
34983;BME280;21187;50.976;13.720;2023-04-06T02:41:41;98620.22;;;3.87;42.75
34983;BME280;21187;50.976;13.720;2023-04-06T02:46:45;98618.13;;;3.83;42.54
34983;BME280;21187;50.976;13.720;2023-04-06T02:51:47;98619.50;;;3.81;42.70
34983;BME280;21187;50.976;13.720;2023-04-06T02:56:55;98623.09;;;3.76;42.77
34983;BME280;21187;50.976;13.720;2023-04-06T03:02:04;98626.94;;;3.70;43.12
34983;BME280;21187;50.976;13.720;2023-04-06T03:07:06;98618.47;;;3.63;43.24
34983;BME280;21187;50.976;13.720;2023-04-06T03:12:12;98621.25;;;3.58;43.00
34983;BME280;21187;50.976;13.720;2023-04-06T03:17:36;98612.09;;;3.59;43.16
34983;BME280;21187;50.976;13.720;2023-04-06T03:22:44;98619.03;;;3.60;43.02
34983;BME280;21187;50.976;13.720;2023-04-06T03:27:49;98621.94;;;3.44;43.09
34983;BME280;21187;50.976;13.720;2023-04-06T03:32:53;98624.88;;;3.29;43.80
34983;BME280;21187;50.976;13.720;2023-04-06T03:37:58;98630.78;;;3.26;43.96
34983;BME280;21187;50.976;13.720;2023-04-06T03:43:01;98629.38;;;3.14;43.82
34983;BME280;21187;50.976;13.720;2023-04-06T03:48:06;98637.63;;;3.18;44.00
34983;BME280;21187;50.976;13.720;2023-04-06T03:53:11;98642.81;;;3.28;43.87
34983;BME280;21187;50.976;13.720;2023-04-06T03:58:13;98642.97;;;3.37;43.94
34983;BME280;21187;50.976;13.720;2023-04-06T04:03:15;98652.66;;;3.33;43.24
34983;BME280;21187;50.976;13.720;2023-04-06T04:08:17;98648.75;;;3.25;43.29
34983;BME280;21187;50.976;13.720;2023-04-06T04:13:19;98653.38;;;3.20;43.74
34983;BME280;21187;50.976;13.720;2023-04-06T04:18:24;98652.88;;;3.17;43.45
34983;BME280;21187;50.976;13.720;2023-04-06T04:23:26;98642.09;;;3.23;44.02
34983;BME280;21187;50.976;13.720;2023-04-06T04:28:28;98646.28;;;3.29;43.50
34983;BME280;21187;50.976;13.720;2023-04-06T04:33:30;98644.69;;;3.28;43.46
34983;BME280;21187;50.976;13.720;2023-04-06T04:38:35;98640.13;;;3.28;43.53
34983;BME280;21187;50.976;13.720;2023-04-06T04:43:37;98646.78;;;3.31;43.30
34983;BME280;21187;50.976;13.720;2023-04-06T04:48:40;98642.44;;;3.35;43.43
34983;BME280;21187;50.976;13.720;2023-04-06T04:53:43;98641.13;;;3.32;43.43
34983;BME280;21187;50.976;13.720;2023-04-06T04:58:53;98644.91;;;3.31;43.38
34983;BME280;21187;50.976;13.720;2023-04-06T05:03:57;98659.16;;;3.27;43.72
34983;BME280;21187;50.976;13.720;2023-04-06T05:08:59;98667.63;;;3.15;44.20
34983;BME280;21187;50.976;13.720;2023-04-06T05:14:04;98662.53;;;2.94;44.86
34983;BME280;21187;50.976;13.720;2023-04-06T05:19:08;98661.72;;;2.94;45.08
34983;BME280;21187;50.976;13.720;2023-04-06T05:24:16;98666.59;;;2.92;45.75
34983;BME280;21187;50.976;13.720;2023-04-06T05:29:20;98667.75;;;3.05;45.46
34983;BME280;21187;50.976;13.720;2023-04-06T05:34:23;98673.50;;;3.36;45.60
34983;BME280;21187;50.976;13.720;2023-04-06T05:39:25;98679.97;;;3.68;44.62
34983;BME280;21187;50.976;13.720;2023-04-06T05:44:28;98675.84;;;3.95;44.47
34983;BME280;21187;50.976;13.720;2023-04-06T05:49:41;98673.78;;;4.20;44.64
34983;BME280;21187;50.976;13.720;2023-04-06T05:54:49;98676.81;;;4.46;44.29
34983;BME280;21187;50.976;13.720;2023-04-06T05:59:52;98677.72;;;4.69;43.75
34983;BME280;21187;50.976;13.720;2023-04-06T06:04:56;98668.28;;;4.99;43.66
34983;BME280;21187;50.976;13.720;2023-04-06T06:10:00;98670.59;;;5.29;44.15
34983;BME280;21187;50.976;13.720;2023-04-06T06:15:06;98669.63;;;5.61;44.05
34983;BME280;21187;50.976;13.720;2023-04-06T06:20:13;98673.09;;;5.84;43.76
34983;BME280;21187;50.976;13.720;2023-04-06T06:25:16;98674.38;;;6.01;43.66
34983;BME280;21187;50.976;13.720;2023-04-06T06:30:20;98677.41;;;6.31;43.90
34983;BME280;21187;50.976;13.720;2023-04-06T06:35:25;98671.47;;;6.52;43.95
34983;BME280;21187;50.976;13.720;2023-04-06T06:40:27;98675.81;;;6.70;44.04
34983;BME280;21187;50.976;13.720;2023-04-06T06:45:30;98673.41;;;7.09;43.76
34983;BME280;21187;50.976;13.720;2023-04-06T06:50:32;98681.69;;;7.56;43.32
34983;BME280;21187;50.976;13.720;2023-04-06T06:55:34;98686.56;;;7.98;43.19
34983;BME280;21187;50.976;13.720;2023-04-06T07:00:37;98679.81;;;8.39;42.53
34983;BME280;21187;50.976;13.720;2023-04-06T07:05:45;98676.84;;;8.79;42.33
34983;BME280;21187;50.976;13.720;2023-04-06T07:10:51;98684.00;;;9.05;42.09
34983;BME280;21187;50.976;13.720;2023-04-06T07:16:00;98685.50;;;9.24;41.23
34983;BME280;21187;50.976;13.720;2023-04-06T07:21:03;98686.69;;;9.35;41.45
34983;BME280;21187;50.976;13.720;2023-04-06T07:26:05;98678.94;;;9.55;41.12
34983;BME280;21187;50.976;13.720;2023-04-06T07:31:07;98684.47;;;9.79;41.24
34983;BME280;21187;50.976;13.720;2023-04-06T07:36:09;98686.81;;;10.14;40.70
34983;BME280;21187;50.976;13.720;2023-04-06T07:41:11;98681.63;;;10.43;40.66
34983;BME280;21187;50.976;13.720;2023-04-06T07:46:14;98677.59;;;10.61;40.18
34983;BME280;21187;50.976;13.720;2023-04-06T07:51:16;98677.72;;;10.90;40.16
34983;BME280;21187;50.976;13.720;2023-04-06T07:56:20;98682.66;;;11.12;39.97
34983;BME280;21187;50.976;13.720;2023-04-06T08:01:23;98678.09;;;11.41;39.61
34983;BME280;21187;50.976;13.720;2023-04-06T08:06:25;98686.13;;;11.50;39.22
34983;BME280;21187;50.976;13.720;2023-04-06T08:11:28;98681.56;;;11.54;38.68
34983;BME280;21187;50.976;13.720;2023-04-06T08:16:30;98681.63;;;11.70;38.30
34983;BME280;21187;50.976;13.720;2023-04-06T08:21:33;98675.97;;;11.75;37.94
34983;BME280;21187;50.976;13.720;2023-04-06T08:26:35;98685.41;;;11.94;37.48
34983;BME280;21187;50.976;13.720;2023-04-06T08:31:37;98681.13;;;12.21;36.72
34983;BME280;21187;50.976;13.720;2023-04-06T08:36:39;98677.72;;;12.40;36.39
34983;BME280;21187;50.976;13.720;2023-04-06T08:41:42;98683.50;;;12.55;35.85
34983;BME280;21187;50.976;13.720;2023-04-06T08:46:44;98674.94;;;12.69;35.37
34983;BME280;21187;50.976;13.720;2023-04-06T08:51:47;98671.41;;;12.68;34.71
34983;BME280;21187;50.976;13.720;2023-04-06T08:56:49;98675.81;;;12.73;34.63
34983;BME280;21187;50.976;13.720;2023-04-06T09:01:52;98671.94;;;12.90;34.18
34983;BME280;21187;50.976;13.720;2023-04-06T09:06:56;98680.25;;;12.97;34.37
34983;BME280;21187;50.976;13.720;2023-04-06T09:11:58;98682.94;;;13.29;33.60
34983;BME280;21187;50.976;13.720;2023-04-06T09:17:07;98680.31;;;13.17;33.19
34983;BME280;21187;50.976;13.720;2023-04-06T09:22:09;98671.16;;;13.25;32.89
34983;BME280;21187;50.976;13.720;2023-04-06T09:27:12;98665.56;;;13.18;32.70
34983;BME280;21187;50.976;13.720;2023-04-06T09:32:14;98668.00;;;13.23;32.06
34983;BME280;21187;50.976;13.720;2023-04-06T09:37:19;98665.53;;;13.34;31.67
34983;BME280;21187;50.976;13.720;2023-04-06T09:42:24;98652.34;;;13.52;31.13
34983;BME280;21187;50.976;13.720;2023-04-06T09:47:27;98655.16;;;13.39;30.95
34983;BME280;21187;50.976;13.720;2023-04-06T09:52:50;98641.28;;;13.44;30.21
34983;BME280;21187;50.976;13.720;2023-04-06T10:08:19;98649.63;;;13.52;30.00
34983;BME280;21187;50.976;13.720;2023-04-06T10:13:24;98643.56;;;13.81;29.59
34983;BME280;21187;50.976;13.720;2023-04-06T10:18:27;98636.50;;;13.77;29.57
34983;BME280;21187;50.976;13.720;2023-04-06T10:23:36;98636.06;;;13.75;29.50
34983;BME280;21187;50.976;13.720;2023-04-06T10:28:41;98633.41;;;13.59;29.33
34983;BME280;21187;50.976;13.720;2023-04-06T10:33:55;98636.28;;;13.46;29.30
34983;BME280;21187;50.976;13.720;2023-04-06T10:39:05;98634.19;;;13.04;28.90
34983;BME280;21187;50.976;13.720;2023-04-06T10:44:07;98631.53;;;13.24;29.75
34983;BME280;21187;50.976;13.720;2023-04-06T10:49:11;98635.25;;;13.35;29.06
34983;BME280;21187;50.976;13.720;2023-04-06T10:54:15;98633.16;;;12.93;28.56
34983;BME280;21187;50.976;13.720;2023-04-06T10:59:21;98631.03;;;13.02;28.45
34983;BME280;21187;50.976;13.720;2023-04-06T11:04:24;98623.78;;;13.26;28.59
34983;BME280;21187;50.976;13.720;2023-04-06T11:09:28;98626.53;;;13.45;28.47
34983;BME280;21187;50.976;13.720;2023-04-06T11:14:30;98613.22;;;13.79;27.60
34983;BME280;21187;50.976;13.720;2023-04-06T11:19:34;98611.63;;;13.39;27.66
34983;BME280;21187;50.976;13.720;2023-04-06T11:24:36;98614.91;;;13.29;27.97
34983;BME280;21187;50.976;13.720;2023-04-06T11:29:38;98606.03;;;13.32;27.81
34983;BME280;21187;50.976;13.720;2023-04-06T11:34:40;98589.66;;;13.68;28.02
34983;BME280;21187;50.976;13.720;2023-04-06T11:39:50;98597.06;;;13.90;27.35
34983;BME280;21187;50.976;13.720;2023-04-06T11:44:59;98597.53;;;13.73;26.71
34983;BME280;21187;50.976;13.720;2023-04-06T11:50:12;98588.75;;;13.40;26.45
34983;BME280;21187;50.976;13.720;2023-04-06T11:55:17;98588.41;;;13.06;27.08
34983;BME280;21187;50.976;13.720;2023-04-06T12:00:20;98589.88;;;13.20;27.25
34983;BME280;21187;50.976;13.720;2023-04-06T12:05:22;98588.88;;;13.28;27.30
34983;BME280;21187;50.976;13.720;2023-04-06T12:10:25;98586.19;;;13.47;27.31
34983;BME280;21187;50.976;13.720;2023-04-06T12:15:27;98582.44;;;13.75;26.52
34983;BME280;21187;50.976;13.720;2023-04-06T12:20:29;98580.25;;;13.85;26.08
34983;BME280;21187;50.976;13.720;2023-04-06T12:25:32;98562.72;;;14.05;26.12
34983;BME280;21187;50.976;13.720;2023-04-06T12:30:35;98550.59;;;14.26;25.83
34983;BME280;21187;50.976;13.720;2023-04-06T12:35:38;98551.50;;;14.60;25.86
34983;BME280;21187;50.976;13.720;2023-04-06T12:40:40;98543.34;;;14.87;25.64
34983;BME280;21187;50.976;13.720;2023-04-06T12:45:42;98536.03;;;14.95;25.37
34983;BME280;21187;50.976;13.720;2023-04-06T12:50:57;98535.72;;;15.00;25.45
34983;BME280;21187;50.976;13.720;2023-04-06T12:56:01;98533.75;;;14.97;25.38
34983;BME280;21187;50.976;13.720;2023-04-06T13:01:06;98533.13;;;15.11;25.41
34983;BME280;21187;50.976;13.720;2023-04-06T13:06:10;98521.94;;;15.20;25.51
34983;BME280;21187;50.976;13.720;2023-04-06T13:11:12;98533.91;;;15.11;25.35
34983;BME280;21187;50.976;13.720;2023-04-06T13:16:15;98523.22;;;14.99;25.39
34983;BME280;21187;50.976;13.720;2023-04-06T13:21:17;98523.84;;;14.85;25.53
34983;BME280;21187;50.976;13.720;2023-04-06T13:26:20;98515.78;;;14.66;25.43
34983;BME280;21187;50.976;13.720;2023-04-06T13:31:22;98509.34;;;14.54;25.54
34983;BME280;21187;50.976;13.720;2023-04-06T13:36:25;98511.53;;;14.41;25.56
34983;BME280;21187;50.976;13.720;2023-04-06T13:41:28;98510.16;;;14.55;25.43
34983;BME280;21187;50.976;13.720;2023-04-06T13:46:30;98503.78;;;14.70;25.51
34983;BME280;21187;50.976;13.720;2023-04-06T13:51:32;98504.72;;;14.55;25.60
34983;BME280;21187;50.976;13.720;2023-04-06T13:56:34;98499.81;;;14.37;25.75
34983;BME280;21187;50.976;13.720;2023-04-06T14:01:36;98492.66;;;14.56;25.50
34983;BME280;21187;50.976;13.720;2023-04-06T14:06:38;98489.50;;;14.80;25.49
34983;BME280;21187;50.976;13.720;2023-04-06T14:11:41;98488.97;;;15.02;25.38
34983;BME280;21187;50.976;13.720;2023-04-06T14:16:43;98479.03;;;15.17;25.16
34983;BME280;21187;50.976;13.720;2023-04-06T14:21:45;98483.66;;;15.12;25.08
34983;BME280;21187;50.976;13.720;2023-04-06T14:26:47;98487.00;;;14.98;25.10
34983;BME280;21187;50.976;13.720;2023-04-06T14:31:49;98478.75;;;14.91;25.18
34983;BME280;21187;50.976;13.720;2023-04-06T14:36:51;98489.41;;;14.73;24.64
34983;BME280;21187;50.976;13.720;2023-04-06T14:41:53;98479.25;;;14.70;24.53
34983;BME280;21187;50.976;13.720;2023-04-06T14:46:55;98481.50;;;14.64;24.54
34983;BME280;21187;50.976;13.720;2023-04-06T14:51:59;98471.81;;;14.67;24.42
34983;BME280;21187;50.976;13.720;2023-04-06T14:57:01;98478.72;;;14.61;24.52
34983;BME280;21187;50.976;13.720;2023-04-06T15:02:03;98464.97;;;14.54;24.39
34983;BME280;21187;50.976;13.720;2023-04-06T15:07:05;98471.19;;;14.51;24.70
34983;BME280;21187;50.976;13.720;2023-04-06T15:12:07;98467.25;;;14.48;24.57
34983;BME280;21187;50.976;13.720;2023-04-06T15:17:09;98458.97;;;14.41;24.83
34983;BME280;21187;50.976;13.720;2023-04-06T15:22:12;98468.09;;;14.25;24.88
34983;BME280;21187;50.976;13.720;2023-04-06T15:27:14;98460.50;;;14.11;24.93
34983;BME280;21187;50.976;13.720;2023-04-06T15:32:16;98463.75;;;13.97;25.00
34983;BME280;21187;50.976;13.720;2023-04-06T15:37:18;98463.19;;;13.85;25.22
34983;BME280;21187;50.976;13.720;2023-04-06T15:42:20;98461.06;;;13.74;25.33
34983;BME280;21187;50.976;13.720;2023-04-06T15:47:21;98458.03;;;13.56;25.32
34983;BME280;21187;50.976;13.720;2023-04-06T15:52:23;98460.72;;;13.53;25.57
34983;BME280;21187;50.976;13.720;2023-04-06T15:57:25;98463.19;;;13.38;25.46
34983;BME280;21187;50.976;13.720;2023-04-06T16:02:27;98464.59;;;13.32;25.50
34983;BME280;21187;50.976;13.720;2023-04-06T16:07:30;98462.94;;;13.27;25.58
34983;BME280;21187;50.976;13.720;2023-04-06T16:12:33;98470.63;;;13.22;25.82
34983;BME280;21187;50.976;13.720;2023-04-06T16:17:35;98464.44;;;13.25;25.76
34983;BME280;21187;50.976;13.720;2023-04-06T16:22:37;98468.19;;;13.17;25.76
34983;BME280;21187;50.976;13.720;2023-04-06T16:27:39;98467.91;;;13.02;26.11
34983;BME280;21187;50.976;13.720;2023-04-06T16:32:41;98469.56;;;12.87;26.46
34983;BME280;21187;50.976;13.720;2023-04-06T16:37:43;98465.06;;;12.75;26.34
34983;BME280;21187;50.976;13.720;2023-04-06T16:42:47;98467.19;;;12.66;26.42
34983;BME280;21187;50.976;13.720;2023-04-06T16:47:49;98464.75;;;12.61;26.69
34983;BME280;21187;50.976;13.720;2023-04-06T16:52:51;98467.75;;;12.56;26.67
34983;BME280;21187;50.976;13.720;2023-04-06T16:57:54;98460.31;;;12.53;26.80
34983;BME280;21187;50.976;13.720;2023-04-06T17:02:56;98466.72;;;12.44;26.65
34983;BME280;21187;50.976;13.720;2023-04-06T17:07:58;98470.50;;;12.40;26.59
34983;BME280;21187;50.976;13.720;2023-04-06T17:13:01;98464.75;;;12.25;26.94
34983;BME280;21187;50.976;13.720;2023-04-06T17:18:03;98462.22;;;12.17;26.90
34983;BME280;21187;50.976;13.720;2023-04-06T17:23:05;98468.22;;;12.06;26.96
34983;BME280;21187;50.976;13.720;2023-04-06T17:28:07;98473.69;;;11.94;27.20
34983;BME280;21187;50.976;13.720;2023-04-06T17:33:09;98473.78;;;11.81;27.16
34983;BME280;21187;50.976;13.720;2023-04-06T17:38:11;98481.31;;;11.72;27.45
34983;BME280;21187;50.976;13.720;2023-04-06T17:43:13;98484.72;;;11.69;27.65
34983;BME280;21187;50.976;13.720;2023-04-06T17:48:14;98476.56;;;11.69;27.72
34983;BME280;21187;50.976;13.720;2023-04-06T17:53:16;98485.63;;;11.73;27.90
34983;BME280;21187;50.976;13.720;2023-04-06T17:58:20;98502.06;;;11.64;27.72
34983;BME280;21187;50.976;13.720;2023-04-06T18:03:23;98496.34;;;11.54;27.92
34983;BME280;21187;50.976;13.720;2023-04-06T18:08:25;98498.44;;;11.44;28.09
34983;BME280;21187;50.976;13.720;2023-04-06T18:13:26;98501.41;;;11.39;28.34
34983;BME280;21187;50.976;13.720;2023-04-06T18:18:28;98503.47;;;11.30;28.41
34983;BME280;21187;50.976;13.720;2023-04-06T18:23:32;98512.34;;;11.14;29.03
34983;BME280;21187;50.976;13.720;2023-04-06T18:28:34;98515.53;;;11.04;29.19
34983;BME280;21187;50.976;13.720;2023-04-06T18:33:36;98515.59;;;10.92;28.96
34983;BME280;21187;50.976;13.720;2023-04-06T18:38:43;98517.75;;;10.86;29.12
34983;BME280;21187;50.976;13.720;2023-04-06T18:43:45;98517.66;;;10.70;29.29
34983;BME280;21187;50.976;13.720;2023-04-06T18:48:47;98528.31;;;10.51;30.06
34983;BME280;21187;50.976;13.720;2023-04-06T18:53:49;98532.81;;;10.46;29.94
34983;BME280;21187;50.976;13.720;2023-04-06T18:58:51;98532.13;;;10.25;29.75
34983;BME280;21187;50.976;13.720;2023-04-06T19:03:54;98537.97;;;10.02;30.72
34983;BME280;21187;50.976;13.720;2023-04-06T19:08:56;98529.03;;;9.89;30.33
34983;BME280;21187;50.976;13.720;2023-04-06T19:13:59;98541.53;;;9.81;30.09
34983;BME280;21187;50.976;13.720;2023-04-06T19:19:01;98528.91;;;9.73;30.95
34983;BME280;21187;50.976;13.720;2023-04-06T19:24:03;98527.97;;;9.57;30.90
34983;BME280;21187;50.976;13.720;2023-04-06T19:29:05;98529.16;;;9.35;31.03
34983;BME280;21187;50.976;13.720;2023-04-06T19:34:07;98534.81;;;9.21;31.13
34983;BME280;21187;50.976;13.720;2023-04-06T19:39:09;98535.63;;;9.00;31.10
34983;BME280;21187;50.976;13.720;2023-04-06T19:44:11;98534.44;;;8.89;31.47
34983;BME280;21187;50.976;13.720;2023-04-06T19:49:13;98532.13;;;8.78;31.40
34983;BME280;21187;50.976;13.720;2023-04-06T19:54:15;98529.22;;;8.83;31.74
34983;BME280;21187;50.976;13.720;2023-04-06T19:59:17;98532.59;;;8.80;31.55
34983;BME280;21187;50.976;13.720;2023-04-06T20:04:19;98532.13;;;8.78;31.90
34983;BME280;21187;50.976;13.720;2023-04-06T20:09:21;98531.53;;;8.73;31.61
34983;BME280;21187;50.976;13.720;2023-04-06T20:14:23;98533.09;;;8.53;31.67
34983;BME280;21187;50.976;13.720;2023-04-06T20:19:26;98532.88;;;8.28;32.30
34983;BME280;21187;50.976;13.720;2023-04-06T20:24:29;98534.97;;;8.22;32.26
34983;BME280;21187;50.976;13.720;2023-04-06T20:29:31;98534.69;;;8.15;32.80
34983;BME280;21187;50.976;13.720;2023-04-06T20:34:33;98533.94;;;7.97;32.58
34983;BME280;21187;50.976;13.720;2023-04-06T20:39:35;98539.56;;;7.83;33.29
34983;BME280;21187;50.976;13.720;2023-04-06T20:44:37;98533.13;;;7.58;33.17
34983;BME280;21187;50.976;13.720;2023-04-06T20:49:39;98530.59;;;7.53;33.45
34983;BME280;21187;50.976;13.720;2023-04-06T20:54:41;98531.22;;;7.49;33.44
34983;BME280;21187;50.976;13.720;2023-04-06T20:59:43;98533.19;;;7.31;33.63
34983;BME280;21187;50.976;13.720;2023-04-06T21:04:45;98514.16;;;7.28;33.70
34983;BME280;21187;50.976;13.720;2023-04-06T21:09:48;98518.44;;;7.20;34.22
34983;BME280;21187;50.976;13.720;2023-04-06T21:14:49;98521.28;;;7.24;33.69
34983;BME280;21187;50.976;13.720;2023-04-06T21:19:51;98528.75;;;7.09;34.30
34983;BME280;21187;50.976;13.720;2023-04-06T21:24:53;98518.78;;;7.01;34.30
34983;BME280;21187;50.976;13.720;2023-04-06T21:29:55;98515.75;;;6.94;34.31
34983;BME280;21187;50.976;13.720;2023-04-06T21:34:57;98524.47;;;6.91;34.64
34983;BME280;21187;50.976;13.720;2023-04-06T21:39:59;98532.22;;;6.83;34.63
34983;BME280;21187;50.976;13.720;2023-04-06T21:45:03;98505.59;;;6.82;34.57
34983;BME280;21187;50.976;13.720;2023-04-06T21:50:05;98516.69;;;6.80;34.70
34983;BME280;21187;50.976;13.720;2023-04-06T21:55:07;98506.75;;;6.81;35.00
34983;BME280;21187;50.976;13.720;2023-04-06T22:00:10;98507.19;;;6.74;34.80
34983;BME280;21187;50.976;13.720;2023-04-06T22:05:18;98508.47;;;6.68;35.00
34983;BME280;21187;50.976;13.720;2023-04-06T22:10:20;98508.47;;;6.68;34.83
34983;BME280;21187;50.976;13.720;2023-04-06T22:15:22;98506.53;;;6.51;35.35
34983;BME280;21187;50.976;13.720;2023-04-06T22:20:24;98508.09;;;6.43;35.36
34983;BME280;21187;50.976;13.720;2023-04-06T22:25:26;98498.13;;;6.35;35.76
34983;BME280;21187;50.976;13.720;2023-04-06T22:30:28;98503.78;;;6.25;35.62
34983;BME280;21187;50.976;13.720;2023-04-06T22:35:29;98490.66;;;6.32;35.61
34983;BME280;21187;50.976;13.720;2023-04-06T22:40:31;98495.41;;;6.26;35.73
34983;BME280;21187;50.976;13.720;2023-04-06T22:45:33;98493.03;;;6.25;35.90
34983;BME280;21187;50.976;13.720;2023-04-06T22:50:35;98491.94;;;6.26;35.71
34983;BME280;21187;50.976;13.720;2023-04-06T22:55:38;98485.59;;;6.22;35.69
34983;BME280;21187;50.976;13.720;2023-04-06T23:00:41;98482.91;;;6.22;35.92
34983;BME280;21187;50.976;13.720;2023-04-06T23:05:43;98477.22;;;6.23;35.83
34983;BME280;21187;50.976;13.720;2023-04-06T23:10:46;98480.38;;;6.16;36.08
34983;BME280;21187;50.976;13.720;2023-04-06T23:15:48;98480.50;;;6.11;36.24
34983;BME280;21187;50.976;13.720;2023-04-06T23:20:50;98470.34;;;6.08;36.32
34983;BME280;21187;50.976;13.720;2023-04-06T23:25:52;98476.22;;;6.10;36.34
34983;BME280;21187;50.976;13.720;2023-04-06T23:30:53;98474.63;;;6.09;36.44
34983;BME280;21187;50.976;13.720;2023-04-06T23:35:55;98462.00;;;6.10;36.17
34983;BME280;21187;50.976;13.720;2023-04-06T23:40:57;98462.97;;;6.14;36.54
34983;BME280;21187;50.976;13.720;2023-04-06T23:45:59;98454.56;;;6.15;36.42
34983;BME280;21187;50.976;13.720;2023-04-06T23:51:02;98458.03;;;6.16;36.50
34983;BME280;21187;50.976;13.720;2023-04-06T23:56:04;98459.94;;;6.15;36.21
